ECPPN LEZL-LEZL

Flight info

Callsign ECPPN
Flight time 0h 53m
Altitude 5000
Route VISUAL
Aircraft PA38/L-ICAO/7000

Departure

Time 2026-05-08 17:46
Airport Seville Airport (LEZL)

Arrival

Time 2026-05-08 18:40
Airport Seville Airport (LEZL)
Time Latitude Longitude Altitude Speed Heading
2026-05-08 17:33 37.42129 -5.90649 88 ft 0 kts 89°
2026-05-08 17:34 37.42129 -5.90650 88 ft 0 kts 89°
2026-05-08 17:40 37.42129 -5.90649 88 ft 1 kts 96°
2026-05-08 17:41 37.42100 -5.90630 88 ft 9 kts 185°
2026-05-08 17:41 37.42040 -5.90625 88 ft 8 kts 139°
2026-05-08 17:41 37.42033 -5.90560 88 ft 9 kts 93°
2026-05-08 17:41 37.41982 -5.90508 88 ft 9 kts 108°
2026-05-08 17:42 37.41980 -5.90417 89 ft 11 kts 88°
2026-05-08 17:42 37.41980 -5.90352 89 ft 11 kts 88°
2026-05-08 17:42 37.41981 -5.90247 90 ft 13 kts 88°
2026-05-08 17:42 37.41981 -5.90120 90 ft 15 kts 91°
2026-05-08 17:43 37.41980 -5.89981 90 ft 18 kts 89°
2026-05-08 17:43 37.41982 -5.89801 91 ft 23 kts 90°
2026-05-08 17:43 37.41982 -5.89596 92 ft 23 kts 89°
2026-05-08 17:43 37.41982 -5.89400 93 ft 22 kts 91°
2026-05-08 17:44 37.41982 -5.89215 95 ft 21 kts 89°
2026-05-08 17:44 37.41983 -5.89035 96 ft 20 kts 87°
2026-05-08 17:44 37.41984 -5.88868 97 ft 20 kts 88°
2026-05-08 17:44 37.41949 -5.88757 97 ft 12 kts 171°
2026-05-08 17:45 37.41873 -5.88765 98 ft 12 kts 191°
2026-05-08 17:45 37.41795 -5.88837 98 ft 14 kts 271°
2026-05-08 17:45 37.41785 -5.89062 96 ft 45 kts 266°
2026-05-08 17:45 37.41772 -5.89563 143 ft 69 kts 269°
2026-05-08 17:46 37.41813 -5.90174 287 ft 74 kts 264°
2026-05-08 17:46 37.41793 -5.90860 378 ft 83 kts 260°
2026-05-08 17:46 37.41886 -5.91581 568 ft 86 kts 291°
2026-05-08 17:46 37.42303 -5.92108 768 ft 90 kts 329°
2026-05-08 17:47 37.42928 -5.92301 896 ft 92 kts 357°
2026-05-08 17:47 37.43571 -5.92190 879 ft 90 kts
2026-05-08 17:47 37.44180 -5.92012 936 ft 85 kts
2026-05-08 17:47 37.44779 -5.91816 876 ft 94 kts 16°
2026-05-08 17:48 37.45407 -5.91697 894 ft 91 kts
2026-05-08 17:48 37.46038 -5.91585 851 ft 95 kts
2026-05-08 17:48 37.46701 -5.91548 841 ft 96 kts 356°
2026-05-08 17:48 37.47351 -5.91600 859 ft 92 kts 352°
2026-05-08 17:49 37.48015 -5.91720 760 ft 95 kts 345°
2026-05-08 17:49 37.48665 -5.91864 778 ft 96 kts 352°
2026-05-08 17:49 37.49315 -5.91701 890 ft 97 kts 21°
2026-05-08 17:49 37.49936 -5.91386 1004 ft 98 kts 20°
2026-05-08 17:50 37.50571 -5.91041 1125 ft 101 kts 23°
2026-05-08 17:50 37.51205 -5.90664 1217 ft 103 kts 23°
2026-05-08 17:50 37.51824 -5.90225 1339 ft 102 kts 34°
2026-05-08 17:50 37.52428 -5.89748 1480 ft 102 kts 33°
2026-05-08 17:51 37.53035 -5.89270 1479 ft 104 kts 33°
2026-05-08 17:51 37.53653 -5.88774 1484 ft 103 kts 33°
2026-05-08 17:51 37.54234 -5.88315 1535 ft 98 kts 31°
2026-05-08 17:51 37.54809 -5.87870 1523 ft 99 kts 31°
2026-05-08 17:52 37.55414 -5.87445 1535 ft 97 kts 29°
2026-05-08 17:52 37.56041 -5.87051 1586 ft 101 kts 27°
2026-05-08 17:52 37.57314 -5.87224 1697 ft 91 kts 307°
2026-05-08 17:53 37.57792 -5.87764 1750 ft 93 kts 304°
2026-05-08 17:53 37.58206 -5.88367 1852 ft 92 kts 294°
2026-05-08 17:53 37.58563 -5.89027 1919 ft 93 kts 295°
2026-05-08 17:53 37.58878 -5.89681 2017 ft 87 kts 287°
2026-05-08 17:54 37.59108 -5.90380 2116 ft 83 kts 280°
2026-05-08 17:54 37.59290 -5.91126 2118 ft 96 kts 273°
2026-05-08 17:54 37.59448 -5.91942 2198 ft 96 kts 274°
2026-05-08 17:54 37.59632 -5.92739 2294 ft 91 kts 275°
2026-05-08 17:55 37.59783 -5.93531 2233 ft 95 kts 271°
2026-05-08 17:55 37.59901 -5.94360 2150 ft 97 kts 266°
2026-05-08 17:55 37.59963 -5.95179 2119 ft 92 kts 265°
2026-05-08 17:55 37.59973 -5.95939 2183 ft 82 kts 262°
2026-05-08 17:56 37.60165 -5.96634 2155 ft 97 kts 310°
2026-05-08 17:56 37.60797 -5.97041 2138 ft 105 kts 330°
2026-05-08 17:56 37.61428 -5.97454 2243 ft 99 kts 323°
2026-05-08 17:56 37.62017 -5.97908 2272 ft 99 kts 317°
2026-05-08 17:57 37.62419 -5.98547 2299 ft 91 kts 283°
2026-05-08 17:57 37.62476 -5.99286 2395 ft 79 kts 258°
2026-05-08 17:57 37.62424 -5.99992 2366 ft 84 kts 256°
2026-05-08 17:57 37.62317 -6.00708 2353 ft 86 kts 249°
2026-05-08 17:58 37.62151 -6.01419 2352 ft 84 kts 239°
2026-05-08 17:58 37.61920 -6.02069 2341 ft 78 kts 235°
2026-05-08 17:58 37.61652 -6.02665 2355 ft 78 kts 231°
2026-05-08 17:58 37.61462 -6.03312 2419 ft 81 kts 255°
2026-05-08 17:59 37.61440 -6.04030 2506 ft 84 kts 261°
2026-05-08 17:59 37.61425 -6.04799 2486 ft 88 kts 259°
2026-05-08 17:59 37.61364 -6.05495 2470 ft 76 kts 250°
2026-05-08 17:59 37.61288 -6.06168 2452 ft 80 kts 253°
2026-05-08 18:00 37.61295 -6.06892 2560 ft 84 kts 258°
2026-05-08 18:00 37.61164 -6.08368 2690 ft 87 kts 249°
2026-05-08 18:00 37.61031 -6.09077 2735 ft 81 kts 246°
2026-05-08 18:01 37.60858 -6.09753 2780 ft 82 kts 243°
2026-05-08 18:01 37.60700 -6.10430 2873 ft 78 kts 248°
2026-05-08 18:01 37.60573 -6.11088 2981 ft 74 kts 246°
2026-05-08 18:01 37.60434 -6.11675 3084 ft 66 kts 241°
2026-05-08 18:02 37.60265 -6.12257 3014 ft 78 kts 239°
2026-05-08 18:02 37.60129 -6.12691 2948 ft 83 kts 238°
2026-05-08 18:02 37.59827 -6.13605 2940 ft 88 kts 230°
2026-05-08 18:02 37.59358 -6.14032 2925 ft 85 kts 193°
2026-05-08 18:03 37.58793 -6.13992 2938 ft 83 kts 161°
2026-05-08 18:03 37.58280 -6.13665 2937 ft 79 kts 158°
2026-05-08 18:03 37.57821 -6.13292 2970 ft 78 kts 150°
2026-05-08 18:03 37.57406 -6.12842 2896 ft 81 kts 145°
2026-05-08 18:04 37.56973 -6.12420 2832 ft 75 kts 170°
2026-05-08 18:04 37.56439 -6.12353 2733 ft 77 kts 181°
2026-05-08 18:04 37.55911 -6.12281 2693 ft 77 kts 181°
2026-05-08 18:04 37.55429 -6.12192 2744 ft 67 kts 177°
2026-05-08 18:05 37.54936 -6.12073 2683 ft 76 kts 174°
2026-05-08 18:05 37.54427 -6.11884 2740 ft 75 kts 169°
2026-05-08 18:05 37.53938 -6.11623 2758 ft 78 kts 161°
2026-05-08 18:05 37.53460 -6.11269 2765 ft 80 kts 155°
2026-05-08 18:06 37.52993 -6.10904 2740 ft 77 kts 162°
2026-05-08 18:06 37.52495 -6.10753 2750 ft 74 kts 175°
2026-05-08 18:06 37.51989 -6.10611 2757 ft 77 kts 172°
2026-05-08 18:06 37.51460 -6.10445 2759 ft 79 kts 169°
2026-05-08 18:07 37.50931 -6.10251 2750 ft 80 kts 169°
2026-05-08 18:07 37.50410 -6.10281 2749 ft 74 kts 195°
2026-05-08 18:07 37.49904 -6.10408 2754 ft 75 kts 192°
2026-05-08 18:07 37.49401 -6.10517 2744 ft 73 kts 194°
2026-05-08 18:08 37.48895 -6.10600 2752 ft 75 kts 190°
2026-05-08 18:08 37.48370 -6.10674 2742 ft 76 kts 187°
2026-05-08 18:08 37.47854 -6.10730 2736 ft 74 kts 188°
2026-05-08 18:08 37.47336 -6.10755 2740 ft 75 kts 185°
2026-05-08 18:09 37.46808 -6.10714 2744 ft 78 kts 179°
2026-05-08 18:09 37.46269 -6.10602 2738 ft 80 kts 173°
2026-05-08 18:09 37.45733 -6.10426 2762 ft 78 kts 171°
2026-05-08 18:09 37.45236 -6.10100 2748 ft 80 kts 161°
2026-05-08 18:10 37.44713 -6.09893 2756 ft 79 kts 173°
2026-05-08 18:10 37.44184 -6.09754 2766 ft 76 kts 186°
2026-05-08 18:10 37.43653 -6.09820 2754 ft 78 kts 190°
2026-05-08 18:10 37.43130 -6.09923 2749 ft 77 kts 191°
2026-05-08 18:11 37.42603 -6.10031 2753 ft 75 kts 191°
2026-05-08 18:11 37.42099 -6.10139 2759 ft 72 kts 192°
2026-05-08 18:11 37.41628 -6.10222 2755 ft 70 kts 191°
2026-05-08 18:11 37.41144 -6.10316 2759 ft 74 kts 191°
2026-05-08 18:12 37.40618 -6.10439 2758 ft 78 kts 191°
2026-05-08 18:12 37.40069 -6.10541 2756 ft 80 kts 191°
2026-05-08 18:12 37.39522 -6.10663 2752 ft 79 kts 192°
2026-05-08 18:12 37.38988 -6.10786 2753 ft 76 kts 191°
2026-05-08 18:13 37.38475 -6.10898 2749 ft 73 kts 191°
2026-05-08 18:13 37.37974 -6.11010 2752 ft 75 kts 191°
2026-05-08 18:13 37.37443 -6.11130 2752 ft 79 kts 195°
2026-05-08 18:13 37.36901 -6.11309 2757 ft 82 kts 195°
2026-05-08 18:14 37.36331 -6.11508 2756 ft 87 kts 197°
2026-05-08 18:14 37.35750 -6.11728 2758 ft 87 kts 196°
2026-05-08 18:14 37.35164 -6.11913 2750 ft 87 kts 189°
2026-05-08 18:14 37.34567 -6.11989 2754 ft 86 kts 190°
2026-05-08 18:15 37.33973 -6.12059 2757 ft 85 kts 187°
2026-05-08 18:15 37.33376 -6.12124 2754 ft 88 kts 188°
2026-05-08 18:15 37.32762 -6.12189 2750 ft 89 kts 188°
2026-05-08 18:15 37.32154 -6.12255 2750 ft 89 kts 187°
2026-05-08 18:16 37.31573 -6.12502 2751 ft 89 kts 209°
2026-05-08 18:16 37.31143 -6.13054 2747 ft 94 kts 236°
2026-05-08 18:16 37.30974 -6.13843 2747 ft 99 kts 266°
2026-05-08 18:16 37.31052 -6.14703 2751 ft 98 kts 265°
2026-05-08 18:17 37.31104 -6.15563 2745 ft 97 kts 267°
2026-05-08 18:17 37.31165 -6.16390 2746 ft 96 kts 266°
2026-05-08 18:17 37.31242 -6.17240 2747 ft 100 kts 267°
2026-05-08 18:17 37.31310 -6.18078 2741 ft 101 kts 268°
2026-05-08 18:18 37.31366 -6.18945 2749 ft 97 kts 267°
2026-05-08 18:18 37.31419 -6.19784 2760 ft 96 kts 267°
2026-05-08 18:18 37.31473 -6.20617 2758 ft 96 kts 267°
2026-05-08 18:18 37.31527 -6.21448 2762 ft 95 kts 267°
2026-05-08 18:19 37.31597 -6.22272 2756 ft 94 kts 267°
2026-05-08 18:19 37.31694 -6.23070 2757 ft 95 kts 278°
2026-05-08 18:19 37.32072 -6.23800 2756 ft 106 kts 306°
2026-05-08 18:19 37.32733 -6.24282 2749 ft 113 kts 335°
2026-05-08 18:20 37.33512 -6.24388 2750 ft 115 kts
2026-05-08 18:20 37.34303 -6.24307 2750 ft 112 kts
2026-05-08 18:20 37.35071 -6.24135 2755 ft 113 kts
2026-05-08 18:20 37.35852 -6.23959 2757 ft 115 kts
2026-05-08 18:21 37.36646 -6.23786 2748 ft 116 kts
2026-05-08 18:21 37.37432 -6.23603 2751 ft 113 kts
2026-05-08 18:21 37.38206 -6.23410 2746 ft 114 kts
2026-05-08 18:21 37.38975 -6.23235 2752 ft 113 kts 10°
2026-05-08 18:22 37.39759 -6.23064 2750 ft 116 kts
2026-05-08 18:22 37.40540 -6.22810 2747 ft 117 kts 22°
2026-05-08 18:22 37.41260 -6.22331 2745 ft 116 kts 33°
2026-05-08 18:22 37.41949 -6.21809 2743 ft 115 kts 32°
2026-05-08 18:23 37.42609 -6.21264 2749 ft 114 kts 38°
2026-05-08 18:23 37.43277 -6.20710 2748 ft 116 kts 36°
2026-05-08 18:23 37.43935 -6.20139 2746 ft 113 kts 37°
2026-05-08 18:23 37.44593 -6.19590 2743 ft 113 kts 36°
2026-05-08 18:24 37.45255 -6.19044 2750 ft 116 kts 36°
2026-05-08 18:24 37.45938 -6.18473 2752 ft 119 kts 36°
2026-05-08 18:24 37.46620 -6.17878 2750 ft 119 kts 37°
2026-05-08 18:24 37.47292 -6.17301 2743 ft 116 kts 37°
2026-05-08 18:25 37.47967 -6.16729 2667 ft 119 kts 36°
2026-05-08 18:25 37.48635 -6.16133 2563 ft 116 kts 42°
2026-05-08 18:25 37.49204 -6.15437 2468 ft 114 kts 45°
2026-05-08 18:25 37.49763 -6.14720 2369 ft 115 kts 51°
2026-05-08 18:26 37.50312 -6.13984 2261 ft 114 kts 51°
2026-05-08 18:26 37.50844 -6.13250 2140 ft 113 kts 50°
2026-05-08 18:26 37.51300 -6.12457 1966 ft 112 kts 64°
2026-05-08 18:26 37.51684 -6.11632 1789 ft 110 kts 60°
2026-05-08 18:27 37.52079 -6.10822 1610 ft 108 kts 60°
2026-05-08 18:27 37.52190 -6.10588 1559 ft 109 kts 59°
2026-05-08 18:27 37.52817 -6.09212 1269 ft 104 kts 60°
2026-05-08 18:27 37.53144 -6.08450 1144 ft 97 kts 59°
2026-05-08 18:28 37.53445 -6.07721 1040 ft 92 kts 69°
2026-05-08 18:28 37.53660 -6.06948 1004 ft 93 kts 83°
2026-05-08 18:28 37.53729 -6.06215 1003 ft 83 kts 94°
2026-05-08 18:28 37.53781 -6.05430 1017 ft 100 kts 91°
2026-05-08 18:29 37.53850 -6.04502 1013 ft 106 kts 90°
2026-05-08 18:29 37.53928 -6.03624 1017 ft 97 kts 95°
2026-05-08 18:29 37.53969 -6.02803 1010 ft 92 kts 92°
2026-05-08 18:29 37.53979 -6.02007 1005 ft 89 kts 114°
2026-05-08 18:30 37.53827 -6.01240 1002 ft 92 kts 105°
2026-05-08 18:30 37.53657 -6.00506 1004 ft 84 kts 121°
2026-05-08 18:30 37.53514 -6.00037 929 ft 91 kts 124°
2026-05-08 18:30 37.53116 -5.99362 692 ft 102 kts 137°
2026-05-08 18:31 37.52645 -5.98703 592 ft 97 kts 142°
2026-05-08 18:31 37.52183 -5.98134 590 ft 90 kts 141°
2026-05-08 18:31 37.51764 -5.97522 484 ft 94 kts 129°
2026-05-08 18:31 37.51386 -5.96860 490 ft 91 kts 135°
2026-05-08 18:32 37.50996 -5.96252 551 ft 89 kts 135°
2026-05-08 18:32 37.50601 -5.95641 579 ft 92 kts 135°
2026-05-08 18:32 37.50231 -5.94967 612 ft 97 kts 130°
2026-05-08 18:32 37.49849 -5.94250 734 ft 97 kts 126°
2026-05-08 18:33 37.49532 -5.93457 750 ft 106 kts 123°
2026-05-08 18:33 37.49114 -5.92709 810 ft 104 kts 132°
2026-05-08 18:33 37.48710 -5.91933 812 ft 107 kts 127°
2026-05-08 18:33 37.48197 -5.91297 873 ft 99 kts 152°
2026-05-08 18:34 37.47601 -5.90856 934 ft 99 kts 158°
2026-05-08 18:34 37.47009 -5.90470 988 ft 97 kts 162°
2026-05-08 18:34 37.46420 -5.90109 1041 ft 94 kts 160°
2026-05-08 18:34 37.46025 -5.89419 819 ft 120 kts 95°
2026-05-08 18:35 37.46070 -5.88533 935 ft 97 kts 91°
2026-05-08 18:35 37.45970 -5.87729 906 ft 90 kts 129°
2026-05-08 18:35 37.45562 -5.87186 972 ft 88 kts 134°
2026-05-08 18:35 37.45460 -5.86362 850 ft 107 kts 84°
2026-05-08 18:36 37.45700 -5.85511 843 ft 96 kts 75°
2026-05-08 18:36 37.45602 -5.84735 780 ft 87 kts 138°
2026-05-08 18:36 37.45143 -5.84362 783 ft 76 kts 165°
2026-05-08 18:36 37.44661 -5.84095 792 ft 78 kts 166°
2026-05-08 18:37 37.44155 -5.83824 879 ft 74 kts 166°
2026-05-08 18:37 37.43676 -5.83578 838 ft 76 kts 159°
2026-05-08 18:37 37.43214 -5.83298 794 ft 71 kts 175°
2026-05-08 18:37 37.42811 -5.83433 684 ft 65 kts 227°
2026-05-08 18:38 37.42512 -5.83855 648 ft 67 kts 224°
2026-05-08 18:38 37.42159 -5.84279 611 ft 75 kts 224°
2026-05-08 18:38 37.41885 -5.84856 574 ft 79 kts 245°
2026-05-08 18:38 37.41813 -5.85560 401 ft 82 kts 265°
2026-05-08 18:39 37.41828 -5.86248 326 ft 77 kts 263°
2026-05-08 18:39 37.41818 -5.86885 324 ft 73 kts 260°
2026-05-08 18:39 37.41808 -5.87548 198 ft 75 kts 265°
2026-05-08 18:39 37.41800 -5.88161 131 ft 65 kts 264°
2026-05-08 18:40 37.41807 -5.88649 118 ft 48 kts 259°
2026-05-08 18:40 37.41821 -5.89071 111 ft 53 kts 265°
2026-05-08 18:40 37.41867 -5.89501 192 ft 54 kts 259°
2026-05-08 18:40 37.41539 -5.89543 263 ft 73 kts 161°
2026-05-08 18:41 37.41120 -5.89141 365 ft 79 kts 148°
2026-05-08 18:41 37.40817 -5.88556 363 ft 87 kts 107°
2026-05-08 18:41 37.40873 -5.87744 411 ft 97 kts 81°
2026-05-08 18:41 37.41077 -5.86941 529 ft 101 kts 63°
2026-05-08 18:42 37.41455 -5.86242 519 ft 94 kts 26°
2026-05-08 18:42 37.41927 -5.86442 417 ft 73 kts 256°
2026-05-08 18:42 37.41823 -5.87083 250 ft 72 kts 259°
2026-05-08 18:42 37.41816 -5.87636 148 ft 39 kts 257°
2026-05-08 18:43 37.41800 -5.88053 114 ft 55 kts 256°
2026-05-08 18:43 37.41646 -5.88445 250 ft 58 kts 207°
2026-05-08 18:43 37.41206 -5.88398 398 ft 74 kts 160°
2026-05-08 18:43 37.40904 -5.87781 466 ft 96 kts 108°
2026-05-08 18:44 37.40796 -5.86917 560 ft 106 kts 96°
2026-05-08 18:44 37.40852 -5.85948 646 ft 113 kts 82°
2026-05-08 18:44 37.41065 -5.85009 679 ft 114 kts 73°
2026-05-08 18:44 37.41396 -5.84101 741 ft 111 kts 59°
2026-05-08 18:45 37.41909 -5.83349 803 ft 115 kts 35°
2026-05-08 18:45 37.42674 -5.82965 700 ft 120 kts
2026-05-08 18:45 37.43374 -5.82894 826 ft 92 kts
2026-05-08 18:45 37.43984 -5.82930 856 ft 86 kts 344°
2026-05-08 18:46 37.44579 -5.83137 920 ft 90 kts 336°
2026-05-08 18:46 37.45181 -5.83376 1008 ft 90 kts 336°
2026-05-08 18:46 37.45778 -5.83610 1106 ft 89 kts 335°
2026-05-08 18:46 37.46385 -5.83812 1186 ft 92 kts 345°
2026-05-08 18:47 37.47041 -5.83820 1289 ft 96 kts 351°
2026-05-08 18:47 37.47722 -5.83687 1395 ft 101 kts
2026-05-08 18:47 37.48389 -5.83346 1504 ft 105 kts 17°
2026-05-08 18:47 37.49073 -5.83006 1590 ft 107 kts 20°
2026-05-08 18:48 37.49747 -5.82640 1693 ft 106 kts 36°
2026-05-08 18:48 37.50380 -5.82161 1796 ft 107 kts 26°
2026-05-08 18:48 37.51036 -5.81711 1886 ft 109 kts 32°
2026-05-08 18:48 37.51685 -5.81183 1993 ft 112 kts 29°
2026-05-08 18:49 37.52373 -5.80702 2088 ft 114 kts 29°
2026-05-08 18:49 37.53060 -5.80225 2170 ft 111 kts 30°
2026-05-08 18:49 37.53724 -5.79761 2278 ft 108 kts 28°
2026-05-08 18:49 37.54379 -5.79297 2385 ft 107 kts 29°
2026-05-08 18:50 37.55037 -5.78834 2492 ft 109 kts 30°
2026-05-08 18:50 37.55708 -5.78370 2589 ft 110 kts 27°
2026-05-08 18:50 37.56371 -5.77904 2692 ft 109 kts 30°
2026-05-08 18:50 37.57037 -5.77452 2790 ft 108 kts 31°
2026-05-08 18:51 37.57704 -5.77002 2892 ft 109 kts 28°
2026-05-08 18:51 37.58357 -5.76552 2992 ft 108 kts 30°
2026-05-08 18:51 37.59050 -5.76076 3006 ft 115 kts 29°
2026-05-08 18:51 37.59763 -5.75596 3010 ft 120 kts 29°
2026-05-08 18:52 37.60449 -5.74998 2993 ft 121 kts 50°
2026-05-08 18:52 37.60940 -5.74156 3003 ft 119 kts 64°
2026-05-08 18:52 37.61371 -5.73271 3001 ft 118 kts 62°
2026-05-08 18:52 37.61783 -5.72375 3000 ft 118 kts 64°
2026-05-08 18:53 37.62209 -5.71481 3003 ft 119 kts 63°
2026-05-08 18:53 37.62627 -5.70607 3008 ft 114 kts 66°
2026-05-08 18:53 37.62944 -5.69696 3006 ft 113 kts 71°
2026-05-08 18:53 37.63270 -5.68793 3011 ft 113 kts 71°
2026-05-08 18:54 37.63580 -5.67892 3008 ft 112 kts 72°
2026-05-08 18:54 37.63903 -5.66992 3007 ft 112 kts 72°
2026-05-08 18:54 37.64214 -5.66107 3012 ft 109 kts 70°
2026-05-08 18:54 37.64523 -5.65232 3012 ft 111 kts 71°
2026-05-08 18:55 37.65174 -5.63412 3006 ft 114 kts 72°
2026-05-08 18:55 37.65511 -5.62520 3005 ft 112 kts 71°
2026-05-08 18:55 37.65843 -5.61629 3011 ft 113 kts 71°
2026-05-08 18:56 37.66169 -5.60730 3002 ft 112 kts 65°
2026-05-08 18:56 37.66616 -5.59921 3005 ft 112 kts 57°
2026-05-08 18:56 37.67085 -5.59139 3009 ft 113 kts 57°
2026-05-08 18:56 37.67581 -5.58363 3006 ft 113 kts 55°
2026-05-08 18:57 37.68079 -5.57589 3001 ft 113 kts 54°
2026-05-08 18:57 37.68404 -5.57084 3007 ft 111 kts 55°
2026-05-08 18:57 37.69002 -5.55997 3001 ft 111 kts 61°
2026-05-08 18:57 37.69403 -5.55186 3013 ft 110 kts 64°
2026-05-08 18:58 37.69791 -5.54343 3008 ft 111 kts 65°
2026-05-08 18:58 37.70169 -5.53505 3007 ft 109 kts 65°
2026-05-08 18:58 37.70539 -5.52665 3009 ft 110 kts 68°
2026-05-08 18:58 37.70843 -5.51760 3005 ft 113 kts 69°
2026-05-08 18:59 37.71138 -5.50839 3005 ft 113 kts 75°
2026-05-08 18:59 37.71424 -5.49920 3009 ft 112 kts 73°
2026-05-08 18:59 37.71707 -5.48997 3010 ft 114 kts 73°
2026-05-08 18:59 37.71990 -5.48060 3009 ft 115 kts 73°
2026-05-08 19:00 37.72272 -5.47112 3011 ft 115 kts 74°
2026-05-08 19:00 37.72555 -5.46158 3002 ft 116 kts 73°
2026-05-08 19:00 37.72801 -5.45192 3003 ft 114 kts 82°
2026-05-08 19:00 37.72981 -5.44218 3000 ft 114 kts 81°
2026-05-08 19:01 37.73153 -5.43250 3009 ft 113 kts 84°
2026-05-08 19:01 37.73321 -5.42297 3006 ft 112 kts 81°
2026-05-08 19:01 37.73480 -5.41336 3004 ft 112 kts 84°
2026-05-08 19:01 37.73492 -5.40371 2996 ft 111 kts 91°
2026-05-08 19:02 37.73594 -5.39411 3001 ft 109 kts 90°
2026-05-08 19:02 37.73659 -5.38455 3007 ft 109 kts 90°
2026-05-08 19:02 37.73745 -5.37507 3009 ft 109 kts 90°
2026-05-08 19:02 37.73937 -5.36562 3006 ft 113 kts 75°
2026-05-08 19:03 37.74167 -5.35610 3011 ft 114 kts 78°
2026-05-08 19:03 37.74525 -5.34702 2999 ft 116 kts 64°
2026-05-08 19:03 37.74900 -5.33809 2999 ft 115 kts 67°
2026-05-08 19:03 37.75279 -5.32918 3002 ft 115 kts 67°
2026-05-08 19:04 37.75663 -5.32036 3013 ft 116 kts 65°
2026-05-08 19:04 37.76058 -5.31159 3006 ft 114 kts 67°
2026-05-08 19:04 37.76443 -5.30276 2996 ft 113 kts 66°
2026-05-08 19:04 37.76822 -5.29423 3009 ft 113 kts 65°
2026-05-08 19:05 37.77205 -5.28561 3008 ft 115 kts 66°
2026-05-08 19:05 37.77595 -5.27680 3011 ft 115 kts 66°
2026-05-08 19:05 37.77985 -5.26809 3007 ft 113 kts 65°
2026-05-08 19:05 37.78373 -5.25962 3007 ft 110 kts 66°
2026-05-08 19:06 37.78757 -5.25144 3008 ft 108 kts 66°
2026-05-08 19:06 37.79136 -5.24309 3015 ft 110 kts 66°
2026-05-08 19:06 37.79417 -5.23418 3017 ft 109 kts 76°
2026-05-08 19:06 37.79700 -5.22531 3016 ft 109 kts 75°
2026-05-08 19:07 37.79991 -5.21644 3017 ft 110 kts 74°
2026-05-08 19:07 37.80272 -5.20743 3019 ft 110 kts 75°
2026-05-08 19:07 37.80531 -5.19840 3016 ft 108 kts 80°
2026-05-08 19:07 37.80721 -5.18925 3017 ft 108 kts 80°
2026-05-08 19:08 37.80926 -5.18011 3018 ft 109 kts 81°
2026-05-08 19:08 37.81133 -5.17089 3020 ft 109 kts 81°
2026-05-08 19:08 37.81342 -5.16166 3011 ft 109 kts 79°
2026-05-08 19:08 37.81535 -5.15253 2923 ft 106 kts 81°
2026-05-08 19:09 37.81720 -5.14362 2825 ft 103 kts 81°
2026-05-08 19:09 37.81906 -5.13495 2699 ft 103 kts 81°
2026-05-08 19:09 37.82112 -5.12635 2567 ft 100 kts 84°
2026-05-08 19:09 37.82192 -5.11817 2431 ft 89 kts 91°
2026-05-08 19:10 37.82233 -5.11037 2309 ft 93 kts 96°
2026-05-08 19:10 37.82253 -5.10179 2192 ft 101 kts 95°
2026-05-08 19:10 37.82260 -5.09287 2073 ft 102 kts 96°
2026-05-08 19:10 37.82280 -5.08405 2016 ft 97 kts 95°
2026-05-08 19:11 37.82324 -5.07569 2011 ft 94 kts 95°
2026-05-08 19:11 37.82344 -5.06735 2011 ft 97 kts 91°
2026-05-08 19:11 37.82367 -5.05873 2023 ft 99 kts 99°
2026-05-08 19:11 37.82344 -5.04996 2005 ft 98 kts 98°
2026-05-08 19:12 37.82359 -5.04156 1992 ft 91 kts 98°
2026-05-08 19:12 37.82413 -5.03346 1935 ft 97 kts 87°
2026-05-08 19:12 37.82636 -5.02503 1904 ft 101 kts 75°
2026-05-08 19:12 37.82844 -5.01685 1869 ft 96 kts 91°
2026-05-08 19:13 37.82886 -5.00829 1832 ft 99 kts 94°
2026-05-08 19:13 37.82976 -4.99944 1740 ft 105 kts 88°
2026-05-08 19:13 37.83156 -4.99047 1705 ft 106 kts 78°
2026-05-08 19:13 37.83412 -4.98170 1711 ft 105 kts 77°
2026-05-08 19:14 37.83666 -4.97313 1742 ft 102 kts 76°
2026-05-08 19:14 37.83915 -4.96471 1782 ft 100 kts 78°
2026-05-08 19:14 37.84135 -4.95600 1711 ft 110 kts 81°
2026-05-08 19:14 37.84331 -4.94675 1698 ft 108 kts 81°
2026-05-08 19:15 37.84481 -4.93758 1645 ft 105 kts 86°
2026-05-08 19:15 37.84770 -4.92910 1551 ft 109 kts 55°
2026-05-08 19:15 37.85279 -4.92232 1533 ft 103 kts 51°
2026-05-08 19:15 37.85773 -4.91574 1493 ft 104 kts 60°
2026-05-08 19:16 37.86062 -4.90761 1537 ft 104 kts 74°
2026-05-08 19:16 37.86321 -4.89903 1480 ft 109 kts 75°
2026-05-08 19:16 37.86563 -4.89061 1457 ft 91 kts 79°
2026-05-08 19:16 37.86748 -4.88318 1381 ft 92 kts 82°
2026-05-08 19:17 37.86764 -4.87525 1349 ft 92 kts 98°
2026-05-08 19:17 37.86864 -4.86717 1279 ft 89 kts 83°
2026-05-08 19:17 37.87010 -4.86042 1182 ft 76 kts 78°
2026-05-08 19:17 37.86977 -4.85380 1028 ft 76 kts 101°
2026-05-08 19:18 37.86890 -4.84713 907 ft 78 kts 113°
2026-05-08 19:18 37.86641 -4.84179 819 ft 63 kts 141°
2026-05-08 19:18 37.86275 -4.83938 696 ft 61 kts 164°
2026-05-08 19:18 37.85843 -4.83902 589 ft 63 kts 188°
2026-05-08 19:19 37.85444 -4.84076 469 ft 59 kts 201°
2026-05-08 19:19 37.85084 -4.84284 369 ft 56 kts 203°
2026-05-08 19:19 37.84752 -4.84505 310 ft 46 kts 203°
2026-05-08 19:19 37.84551 -4.84618 306 ft 20 kts 173°
2026-05-08 19:20 37.84488 -4.84520 306 ft 15 kts 122°
2026-05-08 19:20 37.84474 -4.84475 307 ft 17 kts 96°
2026-05-08 19:20 37.84504 -4.84393 307 ft 0 kts 27°